createdAt,value
2022-12-06T00:00:34.259Z,54.78
2022-12-06T00:02:35.635Z,54.57
2022-12-06T00:04:36.973Z,54.38
2022-12-06T00:06:38.308Z,54.13
2022-12-06T00:08:39.584Z,54.02
2022-12-06T00:10:40.925Z,53.92
2022-12-06T00:12:42.251Z,53.86
2022-12-06T00:14:43.556Z,54.25
2022-12-06T00:16:44.879Z,54.29
2022-12-06T00:18:46.279Z,54.13
2022-12-06T00:20:47.550Z,54.23
2022-12-06T00:22:48.843Z,54.07
2022-12-06T00:24:50.116Z,53.41
2022-12-06T00:26:51.417Z,54.05
2022-12-06T00:28:52.696Z,53.96
2022-12-06T00:30:53.984Z,54.14
2022-12-06T00:32:55.273Z,54.61
2022-12-06T00:34:56.553Z,54.16
2022-12-06T00:36:57.880Z,54.18
2022-12-06T00:38:59.156Z,54.51
2022-12-06T00:41:00.453Z,55.03
2022-12-06T00:43:01.727Z,54.03
2022-12-06T00:45:03.027Z,54.80
2022-12-06T00:47:04.337Z,54.99
2022-12-06T00:49:05.703Z,54.24
2022-12-06T00:51:07.024Z,53.37
2022-12-06T00:53:08.352Z,53.73
2022-12-06T00:55:09.636Z,54.28
2022-12-06T00:57:10.919Z,54.87
2022-12-06T00:59:12.229Z,54.96
2022-12-06T01:01:13.614Z,53.79
2022-12-06T01:03:14.993Z,52.61
2022-12-06T01:05:16.336Z,52.03
2022-12-06T01:07:17.673Z,47.19
2022-12-06T01:09:18.952Z,49.57
2022-12-06T01:11:20.243Z,51.35
2022-12-06T01:13:21.524Z,51.45
2022-12-06T01:15:22.805Z,51.19
2022-12-06T01:17:24.147Z,51.56
2022-12-06T01:19:25.471Z,51.62
2022-12-06T01:21:26.757Z,51.85
2022-12-06T01:23:28.193Z,52.03
2022-12-06T01:25:35.810Z,52.11
2022-12-06T01:27:37.788Z,52.33
2022-12-06T01:29:39.091Z,52.58
2022-12-06T01:31:40.423Z,52.91
2022-12-06T01:33:42.644Z,53.15
2022-12-06T01:35:44.674Z,53.03
2022-12-06T01:37:46.023Z,52.86
2022-12-06T01:39:47.331Z,53.44
2022-12-06T01:41:48.604Z,53.43
2022-12-06T01:43:49.889Z,53.81
2022-12-06T01:45:51.718Z,53.67
2022-12-06T01:47:53.036Z,53.92
2022-12-06T01:49:54.360Z,53.68
2022-12-06T01:51:55.653Z,53.98
2022-12-06T01:53:56.939Z,53.92
2022-12-06T01:55:58.567Z,54.15
2022-12-06T01:57:59.872Z,54.62
2022-12-06T02:00:01.459Z,55.08
2022-12-06T02:02:03.119Z,54.98
2022-12-06T02:04:04.515Z,55.43
2022-12-06T02:06:05.866Z,55.37
2022-12-06T02:08:09.799Z,55.13
2022-12-06T02:10:11.215Z,55.51
2022-12-06T02:12:12.515Z,55.81
2022-12-06T02:14:14.703Z,55.79
2022-12-06T02:16:16.053Z,56.47
2022-12-06T02:18:17.401Z,56.91
2022-12-06T02:20:18.899Z,56.81
2022-12-06T02:22:20.277Z,57.08
2022-12-06T02:24:21.568Z,57.39
2022-12-06T02:26:22.939Z,57.25
2022-12-06T02:28:24.288Z,57.75
2022-12-06T02:30:25.628Z,58.03
2022-12-06T02:32:26.930Z,58.23
2022-12-06T02:34:28.231Z,57.91
2022-12-06T02:36:29.557Z,58.34
2022-12-06T02:38:30.910Z,57.95
2022-12-06T02:40:32.208Z,58.31
2022-12-06T02:42:33.536Z,58.18
2022-12-06T02:44:34.844Z,58.09
2022-12-06T02:46:36.198Z,57.84
2022-12-06T02:48:37.544Z,58.05
2022-12-06T02:50:38.822Z,57.61
2022-12-06T02:52:40.112Z,57.27
2022-12-06T02:54:41.440Z,57.10
2022-12-06T02:56:42.748Z,57.24
2022-12-06T02:58:44.769Z,57.32
2022-12-06T03:00:46.112Z,57.40
2022-12-06T03:02:47.473Z,57.11
2022-12-06T03:04:49.863Z,56.69
2022-12-06T03:06:51.212Z,56.97
2022-12-06T03:08:52.503Z,56.75
2022-12-06T03:10:53.796Z,56.95
2022-12-06T03:12:55.280Z,56.87
2022-12-06T03:14:56.564Z,56.80
2022-12-06T03:16:57.895Z,57.39
2022-12-06T03:18:59.205Z,55.42
2022-12-06T03:21:00.526Z,55.88
2022-12-06T03:23:02.357Z,55.74
2022-12-06T03:25:03.662Z,55.69
2022-12-06T03:27:04.970Z,56.15
2022-12-06T03:29:06.283Z,55.84
2022-12-06T03:31:07.636Z,56.42
2022-12-06T03:33:08.972Z,56.61
2022-12-06T03:35:10.257Z,56.94
2022-12-06T03:37:11.548Z,56.79
2022-12-06T03:39:12.840Z,56.82
2022-12-06T03:41:14.146Z,57.37
2022-12-06T03:43:15.436Z,57.42
2022-12-06T03:45:16.773Z,57.54
2022-12-06T03:47:18.195Z,57.73
2022-12-06T03:49:19.512Z,57.78
2022-12-06T03:51:20.840Z,58.02
2022-12-06T03:53:22.168Z,58.04
2022-12-06T03:55:23.470Z,58.37
2022-12-06T03:57:24.792Z,58.68
2022-12-06T03:59:26.073Z,58.28
2022-12-06T04:01:30.368Z,58.38
2022-12-06T04:03:31.818Z,58.82
2022-12-06T04:05:33.132Z,58.99
2022-12-06T04:07:34.515Z,59.09
2022-12-06T04:10:02.575Z,59.24
2022-12-06T04:12:24.174Z,58.85
2022-12-06T04:14:32.526Z,58.97
2022-12-06T04:16:52.581Z,58.88
2022-12-06T04:18:53.860Z,59.09
2022-12-06T04:21:13.713Z,58.73
2022-12-06T04:23:14.994Z,58.66
2022-12-06T04:25:16.273Z,58.08
2022-12-06T04:27:36.197Z,58.28
2022-12-06T04:29:56.130Z,57.96
2022-12-06T04:32:16.084Z,57.82
2022-12-06T04:34:35.957Z,58.17
2022-12-06T04:36:55.789Z,57.68
2022-12-06T04:38:57.121Z,57.73
2022-12-06T04:40:58.401Z,57.51
2022-12-06T04:43:18.200Z,57.95
2022-12-06T04:45:19.523Z,57.29
2022-12-06T04:47:20.813Z,57.72
2022-12-06T04:49:22.103Z,57.54
2022-12-06T04:51:23.414Z,57.96
2022-12-06T04:53:24.748Z,57.69
2022-12-06T04:55:26.028Z,57.84
2022-12-06T04:57:27.303Z,57.25
2022-12-06T04:59:28.863Z,57.24
2022-12-06T05:01:30.184Z,57.89
2022-12-06T05:03:31.609Z,57.71
2022-12-06T05:05:32.956Z,57.63
2022-12-06T05:07:34.322Z,58.05
2022-12-06T05:09:35.680Z,58.11
2022-12-06T05:11:36.970Z,58.14
2022-12-06T05:13:38.251Z,58.19
2022-12-06T05:15:39.552Z,58.57
2022-12-06T05:17:40.829Z,58.43
2022-12-06T05:19:42.141Z,58.88
2022-12-06T05:21:43.430Z,58.89
2022-12-06T05:23:44.711Z,59.11
2022-12-06T05:25:45.993Z,59.01
2022-12-06T05:27:47.346Z,59.42
2022-12-06T05:29:48.665Z,59.50
2022-12-06T05:31:50.135Z,59.54
2022-12-06T05:33:51.469Z,59.72
2022-12-06T05:35:52.769Z,59.79
2022-12-06T05:37:54.049Z,59.79
2022-12-06T05:39:55.358Z,59.57
2022-12-06T05:41:56.633Z,59.55
2022-12-06T05:43:58.068Z,59.44
2022-12-06T05:45:59.422Z,59.23
2022-12-06T05:48:00.740Z,58.63
2022-12-06T05:50:02.256Z,58.64
2022-12-06T05:52:04.364Z,58.75
2022-12-06T05:54:06.767Z,58.68
2022-12-06T05:56:08.669Z,57.93
2022-12-06T05:58:10.048Z,58.01
2022-12-06T06:00:11.328Z,58.07
2022-12-06T06:02:12.760Z,57.83
2022-12-06T06:04:14.136Z,58.01
2022-12-06T06:06:15.415Z,57.71
2022-12-06T06:08:16.826Z,57.83
2022-12-06T06:10:18.152Z,57.71
2022-12-06T06:12:19.435Z,57.60
2022-12-06T06:14:20.928Z,57.39
2022-12-06T06:16:22.353Z,57.46
2022-12-06T06:18:23.763Z,57.74
2022-12-06T06:20:25.048Z,57.59
2022-12-06T06:22:26.372Z,57.67
2022-12-06T06:24:27.684Z,57.50
2022-12-06T06:26:29.786Z,58.15
2022-12-06T06:28:31.115Z,58.08
2022-12-06T06:30:32.389Z,57.66
2022-12-06T06:32:33.728Z,58.31
2022-12-06T06:34:35.008Z,58.10
2022-12-06T06:36:38.896Z,58.16
2022-12-06T06:38:42.408Z,58.20
2022-12-06T06:40:43.765Z,58.31
2022-12-06T06:42:45.044Z,58.55
2022-12-06T06:44:46.372Z,58.64
2022-12-06T06:46:47.687Z,58.57
2022-12-06T06:48:49.008Z,59.03
2022-12-06T06:50:55.436Z,58.98
2022-12-06T06:52:58.533Z,59.52
2022-12-06T06:54:59.856Z,59.38
2022-12-06T06:57:02.910Z,59.36
2022-12-06T06:59:04.268Z,59.36
2022-12-06T07:01:05.849Z,59.71
2022-12-06T07:03:07.211Z,59.60
2022-12-06T07:05:08.525Z,59.10
2022-12-06T07:07:11.014Z,59.19
2022-12-06T07:09:12.304Z,59.48
2022-12-06T07:11:13.580Z,59.26
2022-12-06T07:13:14.869Z,58.95
2022-12-06T07:15:16.976Z,59.09
2022-12-06T07:17:18.544Z,58.65
2022-12-06T07:19:19.877Z,58.74
2022-12-06T07:21:23.484Z,58.37
2022-12-06T07:23:24.813Z,58.23
2022-12-06T07:25:26.095Z,57.93
2022-12-06T07:27:27.428Z,58.33
2022-12-06T07:29:28.708Z,58.25
2022-12-06T07:31:30.522Z,57.64
2022-12-06T07:33:31.936Z,57.99
2022-12-06T07:36:09.854Z,57.98
2022-12-06T07:37:54.528Z,57.92
2022-12-06T07:39:55.806Z,57.85
2022-12-06T07:42:16.020Z,57.59
2022-12-06T07:44:35.690Z,57.62
2022-12-06T07:46:37.070Z,57.52
2022-12-06T07:48:38.416Z,57.71
2022-12-06T07:50:39.741Z,58.12
2022-12-06T07:52:41.071Z,58.04
2022-12-06T07:54:42.399Z,58.51
2022-12-06T07:56:44.168Z,58.17
2022-12-06T07:58:46.022Z,58.18
2022-12-06T08:00:47.361Z,58.72
2022-12-06T08:02:48.639Z,58.53
2022-12-06T08:04:50.080Z,58.74
2022-12-06T08:06:51.573Z,58.78
2022-12-06T08:08:52.857Z,58.98
2022-12-06T08:10:54.153Z,58.89
2022-12-06T08:12:55.445Z,59.40
2022-12-06T08:14:59.620Z,59.22
2022-12-06T08:17:01.393Z,59.46
2022-12-06T08:19:02.708Z,59.62
2022-12-06T08:21:04.054Z,59.73
2022-12-06T08:23:05.340Z,59.28
2022-12-06T08:25:06.639Z,59.65
2022-12-06T08:27:07.952Z,59.68
2022-12-06T08:29:09.286Z,59.64
2022-12-06T08:31:10.682Z,59.64
2022-12-06T08:33:12.040Z,59.67
2022-12-06T08:35:13.355Z,59.35
2022-12-06T08:37:14.653Z,59.27
2022-12-06T08:39:16.007Z,59.11
2022-12-06T08:41:36.024Z,58.53
2022-12-06T08:43:37.311Z,58.35
2022-12-06T08:45:38.608Z,57.90
2022-12-06T08:47:39.912Z,57.59
2022-12-06T08:49:41.211Z,48.92
2022-12-06T08:51:42.533Z,48.61
2022-12-06T08:53:43.827Z,47.30
2022-12-06T08:55:45.114Z,47.18
2022-12-06T08:57:46.420Z,47.93
2022-12-06T08:59:47.848Z,49.93
2022-12-06T09:01:49.246Z,47.67
2022-12-06T09:03:50.603Z,47.49
2022-12-06T09:05:51.903Z,47.63
2022-12-06T09:07:53.386Z,48.10
2022-12-06T09:09:54.816Z,48.08
2022-12-06T09:11:56.108Z,48.50
2022-12-06T09:13:57.419Z,49.06
2022-12-06T09:15:58.855Z,48.92
2022-12-06T09:18:00.180Z,48.89
2022-12-06T09:20:05.832Z,49.48
2022-12-06T09:22:07.527Z,48.62
2022-12-06T09:24:08.845Z,49.43
2022-12-06T09:26:10.149Z,49.76
2022-12-06T09:28:11.562Z,50.07
2022-12-06T09:30:12.858Z,50.05
2022-12-06T09:32:14.157Z,50.70
2022-12-06T09:34:15.494Z,51.12
2022-12-06T09:36:16.844Z,50.79
2022-12-06T09:38:18.137Z,50.17
2022-12-06T09:40:19.424Z,50.73
2022-12-06T09:42:20.733Z,51.03
2022-12-06T09:44:22.144Z,50.28
2022-12-06T09:46:23.581Z,50.92
2022-12-06T09:48:24.899Z,51.10
2022-12-06T09:50:26.192Z,51.18
2022-12-06T09:52:27.583Z,51.66
2022-12-06T09:54:28.916Z,51.53
2022-12-06T09:56:30.202Z,51.13
2022-12-06T09:58:31.512Z,51.22
2022-12-06T10:00:32.804Z,51.84
2022-12-06T10:02:34.139Z,52.08
2022-12-06T10:04:37.662Z,51.86
2022-12-06T10:06:39.054Z,51.99
2022-12-06T10:08:40.525Z,51.94
2022-12-06T10:10:41.937Z,53.02
2022-12-06T10:12:43.264Z,53.21
2022-12-06T10:14:44.549Z,54.14
2022-12-06T10:16:45.880Z,54.08
2022-12-06T10:18:47.379Z,54.34
2022-12-06T10:20:48.741Z,55.23
2022-12-06T10:22:50.024Z,55.67
2022-12-06T10:24:51.389Z,55.76
2022-12-06T10:26:53.749Z,55.46
2022-12-06T10:28:55.068Z,54.47
2022-12-06T10:30:56.392Z,54.49
2022-12-06T10:33:03.765Z,53.83
2022-12-06T10:35:05.380Z,53.94
2022-12-06T10:37:06.853Z,54.39
2022-12-06T10:39:08.260Z,54.59
2022-12-06T10:41:09.645Z,54.44
2022-12-06T10:43:10.927Z,54.54
2022-12-06T10:45:32.212Z,54.40
2022-12-06T10:47:33.484Z,54.12
2022-12-06T10:49:34.788Z,54.27
2022-12-06T10:51:36.084Z,54.43
2022-12-06T10:53:37.416Z,52.98
2022-12-06T10:55:38.696Z,52.54
2022-12-06T10:57:40.015Z,52.04
2022-12-06T10:59:41.309Z,52.32
2022-12-06T11:01:42.623Z,51.70
2022-12-06T11:03:44.006Z,51.70
2022-12-06T11:05:45.333Z,51.67
2022-12-06T11:07:46.665Z,52.42
2022-12-06T11:09:48.046Z,51.83
2022-12-06T11:11:49.380Z,52.75
2022-12-06T11:13:50.727Z,52.79
2022-12-06T11:15:52.036Z,53.25
2022-12-06T11:17:54.922Z,53.03
2022-12-06T11:19:59.617Z,53.63
2022-12-06T11:22:01.049Z,53.28
2022-12-06T11:24:02.369Z,53.38
2022-12-06T11:26:03.704Z,53.31
2022-12-06T11:28:05.041Z,53.73
2022-12-06T11:30:06.331Z,53.58
2022-12-06T11:32:07.869Z,53.92
2022-12-06T11:34:09.207Z,53.81
2022-12-06T11:36:10.539Z,53.82
2022-12-06T11:38:11.833Z,54.32
2022-12-06T11:40:13.125Z,54.16
2022-12-06T11:42:14.469Z,54.42
2022-12-06T11:44:15.748Z,54.45
2022-12-06T11:46:17.105Z,54.51
2022-12-06T11:48:20.811Z,54.74
2022-12-06T11:50:22.087Z,55.04
2022-12-06T11:52:23.404Z,54.94
2022-12-06T11:54:24.705Z,55.31
2022-12-06T11:56:26.679Z,55.08
2022-12-06T11:58:28.088Z,55.26
2022-12-06T12:00:31.171Z,55.61
2022-12-06T12:02:35.971Z,55.63
2022-12-06T12:04:37.333Z,55.46
2022-12-06T12:06:38.637Z,55.33
2022-12-06T12:08:39.926Z,55.55
2022-12-06T12:10:41.253Z,56.06
2022-12-06T12:13:01.081Z,56.04
2022-12-06T12:15:02.677Z,55.81
2022-12-06T12:17:04.255Z,56.05
2022-12-06T12:19:05.645Z,56.04
2022-12-06T12:21:06.987Z,55.63
2022-12-06T12:23:08.282Z,55.37
2022-12-06T12:25:24.950Z,55.33
2022-12-06T12:27:28.614Z,55.44
2022-12-06T12:29:30.115Z,55.41
2022-12-06T12:31:31.494Z,55.10
2022-12-06T12:33:33.006Z,54.83
2022-12-06T12:35:34.336Z,54.44
2022-12-06T12:37:35.617Z,54.94
2022-12-06T12:39:36.929Z,54.92
2022-12-06T12:41:38.254Z,54.70
2022-12-06T12:43:39.523Z,54.94
2022-12-06T12:45:43.908Z,55.03
2022-12-06T12:47:45.213Z,54.99
2022-12-06T12:49:46.511Z,55.08
2022-12-06T12:51:48.167Z,55.16
2022-12-06T12:53:50.327Z,55.25
2022-12-06T12:55:51.694Z,55.23
2022-12-06T12:57:53.015Z,55.18
2022-12-06T12:59:54.302Z,55.49
2022-12-06T13:01:55.747Z,55.32
2022-12-06T13:03:57.256Z,55.60
2022-12-06T13:05:58.598Z,55.64
2022-12-06T13:07:59.973Z,55.77
2022-12-06T13:10:01.337Z,55.58
2022-12-06T13:12:02.796Z,55.81
2022-12-06T13:14:04.120Z,55.70
2022-12-06T13:16:10.310Z,55.80
2022-12-06T13:18:12.133Z,55.80
2022-12-06T13:20:13.430Z,55.75
2022-12-06T13:22:14.768Z,55.75
2022-12-06T13:24:16.096Z,55.70
2022-12-06T13:26:17.426Z,55.91
2022-12-06T13:28:18.762Z,55.77
2022-12-06T13:30:20.147Z,55.74
2022-12-06T13:32:21.453Z,55.71
2022-12-06T13:34:22.801Z,55.56
2022-12-06T13:36:24.385Z,55.53
2022-12-06T13:38:26.804Z,55.76
2022-12-06T13:40:28.481Z,55.57
2022-12-06T13:42:29.768Z,55.65
2022-12-06T13:44:31.057Z,55.64
2022-12-06T13:46:32.464Z,55.71
2022-12-06T13:48:33.859Z,55.50
2022-12-06T13:50:35.160Z,55.79
2022-12-06T13:52:36.441Z,55.71
2022-12-06T13:54:37.775Z,55.62
2022-12-06T13:56:39.083Z,55.38
2022-12-06T13:58:40.368Z,55.32
2022-12-06T14:00:41.724Z,55.46
2022-12-06T14:02:43.168Z,55.41
2022-12-06T14:04:44.987Z,55.58
2022-12-06T14:06:46.365Z,55.46
2022-12-06T14:08:47.680Z,55.39
2022-12-06T14:10:48.973Z,55.43
2022-12-06T14:12:50.621Z,55.24
2022-12-06T14:14:51.921Z,55.42
2022-12-06T14:16:53.262Z,55.31
2022-12-06T14:18:54.612Z,55.61
2022-12-06T14:20:55.950Z,55.14
2022-12-06T14:22:57.249Z,55.25
2022-12-06T14:24:58.584Z,55.31
2022-12-06T14:26:59.879Z,55.28
2022-12-06T14:29:01.218Z,54.93
2022-12-06T14:31:02.552Z,55.06
2022-12-06T14:33:03.957Z,54.73
2022-12-06T14:35:05.252Z,54.67
2022-12-06T14:37:06.546Z,54.52
2022-12-06T14:39:07.881Z,54.32
2022-12-06T14:41:28.039Z,54.49
2022-12-06T14:43:29.361Z,54.60
2022-12-06T14:45:30.644Z,54.44
2022-12-06T14:47:31.959Z,54.37
2022-12-06T14:49:51.893Z,54.41
2022-12-06T14:51:53.732Z,54.60
2022-12-06T14:53:55.019Z,54.63
2022-12-06T14:55:56.344Z,54.64
2022-12-06T14:57:57.746Z,54.88
2022-12-06T15:00:18.479Z,54.76
2022-12-06T15:02:20.334Z,54.65
2022-12-06T15:04:23.744Z,54.88
2022-12-06T15:06:25.103Z,55.09
2022-12-06T15:08:26.573Z,54.90
2022-12-06T15:10:32.427Z,55.02
2022-12-06T15:12:52.466Z,55.17
2022-12-06T15:14:53.763Z,55.00
2022-12-06T15:16:55.099Z,55.14
2022-12-06T15:18:56.379Z,54.92
2022-12-06T15:20:57.690Z,55.15
2022-12-06T15:22:58.976Z,55.08
2022-12-06T15:25:00.623Z,55.18
2022-12-06T15:27:01.924Z,55.67
2022-12-06T15:29:03.256Z,55.08
2022-12-06T15:31:04.603Z,55.09
2022-12-06T15:33:05.892Z,55.09
2022-12-06T15:35:09.285Z,55.17
2022-12-06T15:37:37.701Z,55.07
2022-12-06T15:39:31.892Z,55.08
2022-12-06T15:41:33.277Z,55.24
2022-12-06T15:43:34.563Z,55.16
2022-12-06T15:45:35.861Z,55.08
2022-12-06T15:47:37.156Z,55.10
2022-12-06T15:49:39.616Z,54.89
2022-12-06T15:51:40.947Z,54.74
2022-12-06T15:53:42.584Z,54.24
2022-12-06T15:55:44.161Z,54.68
2022-12-06T15:57:45.444Z,54.48
2022-12-06T15:59:46.775Z,54.32
2022-12-06T16:01:48.118Z,54.46
2022-12-06T16:03:49.522Z,54.00
2022-12-06T16:05:50.868Z,54.12
2022-12-06T16:07:55.243Z,54.19
2022-12-06T16:09:57.261Z,54.00
2022-12-06T16:11:58.564Z,53.73
2022-12-06T16:13:59.848Z,53.94
2022-12-06T16:16:01.365Z,53.95
2022-12-06T16:18:02.710Z,54.13
2022-12-06T16:20:22.601Z,54.29
2022-12-06T16:22:43.904Z,53.94
2022-12-06T16:24:48.297Z,54.14
2022-12-06T16:26:53.715Z,54.23
2022-12-06T16:28:55.009Z,54.16
2022-12-06T16:30:56.388Z,54.31
2022-12-06T16:33:04.340Z,54.36
2022-12-06T16:35:08.768Z,54.60
2022-12-06T16:37:10.047Z,54.46
2022-12-06T16:39:11.336Z,54.63
2022-12-06T16:41:12.649Z,54.63
2022-12-06T16:43:13.944Z,54.64
2022-12-06T16:45:15.291Z,54.56
2022-12-06T16:47:16.619Z,54.74
2022-12-06T16:51:42.545Z,54.66
2022-12-06T16:53:43.829Z,54.68
2022-12-06T16:55:45.171Z,54.85
2022-12-06T16:57:46.509Z,54.92
2022-12-06T16:59:47.843Z,54.85
2022-12-06T17:01:49.146Z,55.02
2022-12-06T17:03:50.694Z,54.96
2022-12-06T17:05:52.083Z,55.02
2022-12-06T17:07:53.495Z,55.13
2022-12-06T17:09:54.906Z,54.89
2022-12-06T17:12:07.012Z,55.01
2022-12-06T17:14:08.633Z,55.00
2022-12-06T17:16:10.000Z,54.92
2022-12-06T17:18:11.328Z,54.88
2022-12-06T17:20:12.612Z,54.66
2022-12-06T17:22:15.592Z,54.59
2022-12-06T17:24:16.885Z,54.37
2022-12-06T17:26:18.184Z,54.00
2022-12-06T17:28:19.480Z,53.89
2022-12-06T17:30:22.263Z,53.73
2022-12-06T17:32:24.167Z,53.65
2022-12-06T17:34:25.891Z,53.68
2022-12-06T17:36:27.332Z,53.44
2022-12-06T17:38:31.748Z,53.40
2022-12-06T17:40:33.039Z,53.19
2022-12-06T17:42:53.268Z,53.26
2022-12-06T17:44:54.575Z,53.02
2022-12-06T17:46:56.046Z,53.24
2022-12-06T17:48:57.357Z,53.25
2022-12-06T17:50:58.680Z,53.48
2022-12-06T17:52:59.970Z,53.34
2022-12-06T17:55:01.706Z,53.64
2022-12-06T17:57:03.253Z,53.60
2022-12-06T17:59:04.565Z,53.60
2022-12-06T18:01:05.914Z,53.63
2022-12-06T18:03:07.355Z,53.60
2022-12-06T18:05:08.657Z,53.79
2022-12-06T18:07:10.062Z,53.87
2022-12-06T18:09:11.349Z,53.94
2022-12-06T18:11:12.741Z,54.06
2022-12-06T18:13:14.033Z,54.05
2022-12-06T18:15:35.277Z,54.03
2022-12-06T18:17:36.606Z,54.11
2022-12-06T18:19:38.917Z,53.96
2022-12-06T18:21:43.028Z,54.20
2022-12-06T18:24:12.774Z,54.26
2022-12-06T18:26:05.649Z,54.31
2022-12-06T18:28:06.952Z,54.33
2022-12-06T18:30:08.239Z,54.42
2022-12-06T18:32:09.762Z,54.29
2022-12-06T18:34:11.137Z,54.08
2022-12-06T18:36:12.468Z,54.35
2022-12-06T18:38:13.752Z,54.33
2022-12-06T18:40:15.130Z,54.26
2022-12-06T18:42:16.491Z,54.23
2022-12-06T18:44:17.827Z,54.10
2022-12-06T18:46:22.105Z,54.34
2022-12-06T18:48:23.610Z,54.39
2022-12-06T18:50:24.896Z,54.24
2022-12-06T18:52:27.909Z,54.06
2022-12-06T18:54:29.242Z,54.18
2022-12-06T18:56:30.529Z,53.92
2022-12-06T18:58:34.477Z,53.79
2022-12-06T19:00:35.808Z,53.90
2022-12-06T19:02:37.818Z,53.68
2022-12-06T19:04:39.197Z,53.30
2022-12-06T19:06:40.483Z,53.30
2022-12-06T19:08:43.435Z,53.28
2022-12-06T19:10:44.736Z,53.15
2022-12-06T19:12:46.065Z,53.19
2022-12-06T19:14:50.328Z,53.09
2022-12-06T19:16:54.561Z,53.17
2022-12-06T19:18:58.768Z,53.20
2022-12-06T19:21:00.068Z,53.09
2022-12-06T19:23:01.405Z,53.14
2022-12-06T19:25:02.694Z,53.24
2022-12-06T19:27:06.968Z,53.48
2022-12-06T19:29:08.612Z,53.39
2022-12-06T19:31:09.966Z,53.47
2022-12-06T19:33:11.313Z,53.53
2022-12-06T19:35:12.601Z,53.72
2022-12-06T19:37:17.797Z,53.84
2022-12-06T19:39:19.473Z,53.65
2022-12-06T19:41:20.766Z,53.88
2022-12-06T19:43:45.183Z,53.71
2022-12-06T19:45:46.950Z,54.06
2022-12-06T19:47:48.298Z,53.91
2022-12-06T19:49:55.280Z,54.28
2022-12-06T19:51:56.634Z,54.02
2022-12-06T19:53:58.336Z,54.07
2022-12-06T19:56:02.747Z,54.08
2022-12-06T19:58:04.053Z,54.17
2022-12-06T20:00:05.340Z,54.01
2022-12-06T20:02:06.743Z,54.35
2022-12-06T20:04:08.118Z,54.37
2022-12-06T20:06:11.827Z,54.30
2022-12-06T20:08:15.292Z,54.43
2022-12-06T20:10:16.593Z,54.50
2022-12-06T20:12:17.981Z,54.38
2022-12-06T20:14:19.336Z,54.38
2022-12-06T20:16:20.663Z,54.39
2022-12-06T20:18:22.032Z,54.57
2022-12-06T20:20:23.389Z,54.31
2022-12-06T20:22:24.724Z,54.39
2022-12-06T20:24:26.020Z,54.25
2022-12-06T20:26:27.300Z,53.92
2022-12-06T20:28:31.300Z,53.37
2022-12-06T20:30:34.021Z,53.22
2022-12-06T20:32:35.321Z,53.14
2022-12-06T20:34:36.674Z,52.89
2022-12-06T20:36:37.967Z,52.55
2022-12-06T20:38:39.254Z,52.65
2022-12-06T20:40:40.599Z,52.44
2022-12-06T20:42:41.931Z,52.18
2022-12-06T20:44:43.222Z,52.48
2022-12-06T20:46:44.595Z,52.24
2022-12-06T20:48:46.032Z,52.33
2022-12-06T20:50:47.336Z,52.35
2022-12-06T20:52:48.939Z,52.24
2022-12-06T20:54:50.268Z,52.40
2022-12-06T20:56:53.188Z,52.63
2022-12-06T20:58:57.356Z,52.75
2022-12-06T21:00:58.743Z,52.66
2022-12-06T21:03:00.086Z,52.96
2022-12-06T21:05:01.489Z,52.83
2022-12-06T21:07:05.628Z,53.01
2022-12-06T21:09:06.932Z,52.98
2022-12-06T21:11:22.523Z,53.06
2022-12-06T21:13:24.939Z,53.18
2022-12-06T21:15:26.224Z,53.17
2022-12-06T21:17:27.522Z,53.11
2022-12-06T21:19:28.815Z,53.42
2022-12-06T21:21:30.108Z,53.40
2022-12-06T21:23:31.400Z,53.51
2022-12-06T21:25:32.693Z,53.52
2022-12-06T21:27:34.020Z,53.46
2022-12-06T21:29:36.295Z,53.58
2022-12-06T21:31:38.284Z,53.49
2022-12-06T21:33:39.721Z,53.53
2022-12-06T21:35:41.040Z,53.73
2022-12-06T21:37:42.657Z,53.66
2022-12-06T21:39:47.233Z,53.72
2022-12-06T21:41:48.576Z,53.80
2022-12-06T21:43:50.026Z,53.88
2022-12-06T21:45:51.377Z,53.68
2022-12-06T21:47:52.693Z,53.82
2022-12-06T21:49:53.984Z,53.91
2022-12-06T21:52:02.100Z,53.79
2022-12-06T21:54:10.104Z,53.85
2022-12-06T21:56:11.436Z,54.35
2022-12-06T21:58:12.725Z,53.86
2022-12-06T22:00:15.275Z,53.65
2022-12-06T22:02:17.241Z,53.76
2022-12-06T22:04:18.673Z,53.58
2022-12-06T22:06:19.971Z,53.45
2022-12-06T22:08:21.356Z,53.47
2022-12-06T22:10:22.752Z,53.07
2022-12-06T22:12:24.306Z,53.08
2022-12-06T22:14:25.644Z,52.79
2022-12-06T22:16:27.958Z,52.77
2022-12-06T22:18:29.305Z,52.75
2022-12-06T22:20:30.590Z,51.88
2022-12-06T22:22:34.891Z,51.53
2022-12-06T22:24:36.175Z,51.57
2022-12-06T22:26:37.662Z,51.75
2022-12-06T22:28:39.108Z,51.57
2022-12-06T22:30:40.394Z,51.67
2022-12-06T22:32:41.680Z,52.14
2022-12-06T22:34:42.968Z,52.69
2022-12-06T22:36:44.280Z,53.29
2022-12-06T22:38:45.567Z,53.12
2022-12-06T22:40:46.852Z,52.98
2022-12-06T22:42:48.133Z,52.85
2022-12-06T22:44:49.477Z,52.48
2022-12-06T22:46:50.850Z,52.73
2022-12-06T22:48:52.191Z,52.72
2022-12-06T22:50:53.480Z,53.00
2022-12-06T22:52:54.760Z,53.46
2022-12-06T22:54:56.085Z,53.35
2022-12-06T22:56:57.389Z,53.34
2022-12-06T22:58:58.817Z,53.15
2022-12-06T23:01:00.186Z,53.69
2022-12-06T23:03:01.513Z,53.43
2022-12-06T23:05:02.800Z,53.43
2022-12-06T23:07:04.148Z,54.09
2022-12-06T23:09:05.489Z,54.31
2022-12-06T23:11:06.843Z,53.96
2022-12-06T23:13:08.952Z,54.39
2022-12-06T23:15:10.236Z,54.50
2022-12-06T23:17:11.579Z,54.47
2022-12-06T23:19:12.864Z,54.71
2022-12-06T23:21:14.188Z,54.01
2022-12-06T23:23:15.506Z,53.90
2022-12-06T23:25:16.792Z,54.33
2022-12-06T23:27:18.142Z,53.91
2022-12-06T23:29:19.509Z,55.49
2022-12-06T23:31:20.841Z,54.93
2022-12-06T23:33:22.966Z,54.71
2022-12-06T23:35:24.397Z,54.64
2022-12-06T23:37:25.727Z,54.36
2022-12-06T23:39:27.029Z,54.73
2022-12-06T23:41:28.472Z,54.85
2022-12-06T23:43:29.764Z,54.85
2022-12-06T23:45:31.740Z,55.03
2022-12-06T23:47:34.014Z,55.25
2022-12-06T23:49:35.360Z,54.84
2022-12-06T23:51:36.663Z,55.01
2022-12-06T23:53:38.003Z,54.68
2022-12-06T23:55:39.289Z,54.74
2022-12-06T23:57:40.610Z,54.50
2022-12-06T23:59:41.949Z,56.01
